Time;durP1;ratioP1;P1;durP2;ratioP2;P2;SDS_P1;SDS_P2;PMS_P1;PMS_P2;Temp;Humidity;BMP_temperature;BMP_pressure;BME280_temperature;BME280_humidity;BME280_pressure;Samples;Min_cycle;Max_cycle;Signal;HPM_P1;HPM_P2
2024/02/19 00:00:05;;;;;;;23.63;21.13;;;7.50;96.30;;;;;;5017551;28;20208;-85
2024/02/19 00:02:31;;;;;;;23.70;21.30;;;7.50;96.30;;;;;;5018719;28;20261;-85
2024/02/19 00:04:57;;;;;;;22.67;20.30;;;7.50;96.40;;;;;;5018416;28;20228;-85
2024/02/19 00:07:22;;;;;;;24.60;22.00;;;7.50;96.40;;;;;;5036297;28;20705;-85
2024/02/19 00:09:48;;;;;;;23.37;20.93;;;7.50;96.40;;;;;;5036612;28;20230;-86
2024/02/19 00:12:13;;;;;;;24.73;20.43;;;7.50;96.40;;;;;;5036647;28;20208;-86
2024/02/19 00:14:39;;;;;;;21.43;19.40;;;7.50;96.40;;;;;;5036557;28;20262;-86
2024/02/19 00:17:05;;;;;;;20.77;18.73;;;7.50;96.40;;;;;;5018962;28;20192;-85
2024/02/19 00:19:31;;;;;;;20.10;18.20;;;7.40;96.40;;;;;;5036584;28;20223;-86
2024/02/19 00:21:57;;;;;;;18.13;16.23;;;7.40;96.40;;;;;;5036973;28;20546;-86
2024/02/19 00:24:23;;;;;;;18.43;16.80;;;7.30;96.40;;;;;;5018968;28;20181;-86
2024/02/19 00:26:48;;;;;;;19.00;17.30;;;7.30;96.40;;;;;;5036379;28;20177;-85
2024/02/19 00:29:14;;;;;;;19.33;17.63;;;7.30;96.30;;;;;;5036573;28;20260;-86
2024/02/19 00:31:39;;;;;;;19.47;17.90;;;7.30;96.40;;;;;;5036462;28;20247;-86
2024/02/19 00:34:06;;;;;;;20.43;18.63;;;7.30;96.40;;;;;;5018735;28;20653;-85
2024/02/19 00:36:32;;;;;;;19.23;17.63;;;7.20;96.40;;;;;;5036798;28;20600;-85
2024/02/19 00:38:57;;;;;;;17.37;15.93;;;7.30;96.40;;;;;;5036688;28;20235;-85
2024/02/19 00:41:23;;;;;;;10.20;9.40;;;7.30;96.40;;;;;;5018956;28;20220;-86
2024/02/19 00:43:48;;;;;;;10.80;9.87;;;7.20;96.30;;;;;;5036741;28;20262;-85
2024/02/19 00:46:14;;;;;;;12.07;10.97;;;7.10;96.30;;;;;;5036492;28;20173;-87
2024/02/19 00:48:39;;;;;;;11.83;10.77;;;7.10;96.30;;;;;;5018157;28;20719;-86
2024/02/19 00:51:05;;;;;;;11.03;10.03;;;7.10;96.30;;;;;;5036355;28;20176;-86
2024/02/19 00:53:31;;;;;;;11.13;9.80;;;7.00;96.30;;;;;;5018658;28;20230;-86
2024/02/19 00:55:56;;;;;;;11.50;10.33;;;7.00;96.30;;;;;;5038066;28;20519;-85
2024/02/19 00:58:22;;;;;;;11.30;10.13;;;7.00;96.30;;;;;;5035199;28;20200;-86
2024/02/19 01:00:47;;;;;;;10.80;9.67;;;6.90;96.30;;;;;;5035791;28;20211;-85
2024/02/19 01:03:13;;;;;;;9.43;8.73;;;7.00;96.30;;;;;;5017253;28;20189;-86
2024/02/19 01:05:39;;;;;;;12.47;9.70;;;6.90;96.20;;;;;;5035729;28;20575;-86
2024/02/19 01:08:05;;;;;;;10.27;9.30;;;6.90;96.30;;;;;;5035285;28;20746;-86
2024/02/19 01:10:30;;;;;;;9.80;8.93;;;6.90;96.20;;;;;;5034157;28;20184;-85
2024/02/19 01:12:56;;;;;;;11.37;10.27;;;6.80;96.20;;;;;;5034860;28;20252;-85
2024/02/19 01:15:21;;;;;;;10.80;9.77;;;6.80;96.20;;;;;;5017221;28;20177;-85
2024/02/19 01:17:48;;;;;;;10.17;9.27;;;6.80;96.10;;;;;;5034874;28;20200;-85
2024/02/19 01:20:13;;;;;;;11.77;9.50;;;6.80;96.10;;;;;;5017137;28;20181;-85
2024/02/19 01:22:39;;;;;;;9.90;9.03;;;6.80;96.00;;;;;;5034780;28;20189;-85
2024/02/19 01:25:05;;;;;;;8.93;8.17;;;6.70;96.00;;;;;;5016966;28;20188;-85
2024/02/19 01:27:34;;;;;;;9.10;8.30;;;6.70;96.00;;;;;;5034534;28;20334;-85
2024/02/19 01:30:00;;;;;;;9.67;8.20;;;6.70;95.90;;;;;;5034429;28;20322;-85
2024/02/19 01:32:26;;;;;;;8.83;8.13;;;6.70;95.80;;;;;;5034950;28;20169;-85
2024/02/19 01:34:52;;;;;;;10.17;9.20;;;6.70;95.80;;;;;;5016902;28;20176;-85
2024/02/19 01:37:17;;;;;;;10.33;9.23;;;6.70;95.70;;;;;;5034657;28;20272;-85
2024/02/19 01:39:43;;;;;;;10.87;9.93;;;6.60;95.70;;;;;;5034566;28;20180;-85
2024/02/19 01:42:09;;;;;;;10.13;9.30;;;6.70;95.70;;;;;;5016849;28;20184;-86
2024/02/19 01:44:36;;;;;;;9.30;8.70;;;6.60;95.70;;;;;;5017310;28;20181;-85
2024/02/19 01:47:02;;;;;;;10.47;9.67;;;6.50;95.60;;;;;;5034469;28;20204;-85
2024/02/19 01:49:28;;;;;;;12.73;11.53;;;6.60;95.60;;;;;;5034305;28;20669;-85
2024/02/19 01:51:55;;;;;;;12.67;11.37;;;6.60;95.60;;;;;;5016716;28;20192;-85
2024/02/19 01:54:20;;;;;;;13.57;12.27;;;6.60;95.50;;;;;;5034239;28;20227;-85
2024/02/19 01:56:46;;;;;;;10.63;9.83;;;6.60;95.50;;;;;;5016506;28;20203;-85
2024/02/19 01:59:14;;;;;;;10.13;9.30;;;6.60;95.40;;;;;;5016397;28;20255;-85
2024/02/19 02:01:41;;;;;;;9.30;8.53;;;6.60;95.30;;;;;;5016395;28;20319;-85
2024/02/19 02:04:08;;;;;;;10.00;8.87;;;6.60;95.30;;;;;;5034394;28;20195;-85
2024/02/19 02:06:34;;;;;;;8.70;8.00;;;6.60;95.20;;;;;;5034119;28;20173;-85
2024/02/19 02:09:01;;;;;;;9.20;8.50;;;6.60;95.10;;;;;;5015993;28;20217;-85
2024/02/19 02:11:27;;;;;;;10.13;8.97;;;6.60;95.10;;;;;;5016760;28;20257;-85
2024/02/19 02:13:52;;;;;;;9.60;8.80;;;6.60;95.10;;;;;;5016659;28;20234;-85
2024/02/19 02:16:25;;;;;;;9.83;8.57;;;6.60;95.00;;;;;;5033618;28;20168;-85
2024/02/19 02:18:51;;;;;;;9.30;8.60;;;6.50;94.80;;;;;;5033682;28;20196;-85
2024/02/19 02:21:17;;;;;;;9.77;8.87;;;6.50;94.80;;;;;;5033870;28;20180;-85
2024/02/19 02:23:43;;;;;;;10.37;9.47;;;6.60;94.70;;;;;;5033929;28;20176;-85
2024/02/19 02:26:08;;;;;;;11.77;9.60;;;6.50;94.60;;;;;;5033808;28;20189;-86
2024/02/19 02:28:34;;;;;;;19.17;17.97;;;6.60;94.60;;;;;;5034187;28;20322;-85
2024/02/19 02:31:00;;;;;;;20.17;18.50;;;6.60;94.60;;;;;;5016274;28;20181;-85
2024/02/19 02:33:26;;;;;;;19.63;17.50;;;6.60;94.60;;;;;;5033804;28;20180;-85
2024/02/19 02:35:51;;;;;;;19.80;17.87;;;6.60;94.60;;;;;;5016320;28;20334;-85
2024/02/19 02:38:18;;;;;;;20.53;18.83;;;6.60;94.60;;;;;;5033630;28;20271;-86
2024/02/19 02:40:43;;;;;;;20.60;19.10;;;6.60;94.60;;;;;;5033695;28;20181;-85
2024/02/19 02:43:09;;;;;;;21.00;19.30;;;6.50;94.60;;;;;;5015830;28;20191;-85
2024/02/19 02:45:34;;;;;;;20.40;18.60;;;6.60;94.50;;;;;;5033800;28;20640;-85
2024/02/19 02:48:00;;;;;;;21.90;19.47;;;6.50;94.60;;;;;;5033310;28;20212;-85
2024/02/19 02:50:25;;;;;;;20.03;18.30;;;6.50;94.60;;;;;;5015868;28;20176;-85
2024/02/19 02:52:51;;;;;;;20.33;18.60;;;6.50;94.60;;;;;;5033660;28;20180;-85
2024/02/19 02:55:16;;;;;;;20.87;19.07;;;6.50;94.60;;;;;;5033492;28;20165;-86
2024/02/19 02:57:43;;;;;;;20.20;18.40;;;6.50;94.60;;;;;;5015551;28;20223;-85
2024/02/19 03:00:09;;;;;;;20.57;18.77;;;6.50;94.60;;;;;;5015804;28;20180;-85
2024/02/19 03:02:34;;;;;;;18.87;17.30;;;6.50;94.60;;;;;;5033532;28;20173;-86
2024/02/19 03:05:00;;;;;;;19.63;17.73;;;6.50;94.60;;;;;;5033536;28;20691;-85
2024/02/19 03:07:26;;;;;;;20.30;18.60;;;6.50;94.50;;;;;;5033844;28;20432;-86
2024/02/19 03:09:52;;;;;;;19.70;18.40;;;6.50;94.60;;;;;;5033985;28;20699;-85
2024/02/19 03:12:18;;;;;;;10.77;9.67;;;6.50;94.50;;;;;;5016023;28;20176;-85
2024/02/19 03:14:44;;;;;;;11.00;10.00;;;6.50;94.40;;;;;;5033980;28;20672;-86
2024/02/19 03:17:10;;;;;;;10.37;9.57;;;6.40;94.30;;;;;;5033993;28;20227;-85
2024/02/19 03:19:35;;;;;;;9.87;9.10;;;6.40;94.20;;;;;;5033817;28;20573;-85
2024/02/19 03:22:04;;;;;;;10.93;10.03;;;6.40;94.10;;;;;;5033982;28;20211;-85
2024/02/19 03:24:30;;;;;;;11.20;10.37;;;6.40;94.00;;;;;;5016275;28;20645;-85
2024/02/19 03:26:58;;;;;;;10.97;10.27;;;6.40;93.90;;;;;;5015970;28;20184;-85
2024/02/19 03:29:23;;;;;;;10.80;9.93;;;6.30;93.80;;;;;;5034656;28;20216;-85
2024/02/19 03:31:49;;;;;;;11.13;10.30;;;6.30;93.80;;;;;;5034018;28;20180;-85
2024/02/19 03:34:15;;;;;;;10.30;9.63;;;6.30;93.60;;;;;;5035210;28;20172;-85
2024/02/19 03:36:49;;;;;;;11.23;10.27;;;6.30;93.60;;;;;;5020150;28;20180;-85
2024/02/19 03:39:15;;;;;;;10.97;10.00;;;6.30;93.50;;;;;;5039224;28;20180;-85
2024/02/19 03:41:41;;;;;;;10.50;9.70;;;6.30;93.40;;;;;;5038499;28;20191;-86
2024/02/19 03:44:06;;;;;;;11.43;10.33;;;6.30;93.30;;;;;;5038264;28;20180;-86
2024/02/19 03:46:32;;;;;;;11.37;10.40;;;6.30;93.20;;;;;;5020658;28;20169;-85
2024/02/19 03:48:57;;;;;;;13.00;11.80;;;6.30;93.20;;;;;;5020823;28;20204;-86
2024/02/19 03:51:23;;;;;;;12.83;11.83;;;6.30;93.20;;;;;;5038545;28;20231;-85
2024/02/19 03:53:48;;;;;;;12.50;11.07;;;6.20;93.20;;;;;;5020681;28;20226;-86
2024/02/19 03:56:14;;;;;;;12.47;11.30;;;6.20;93.20;;;;;;5020146;28;20173;-86
2024/02/19 03:58:40;;;;;;;12.27;11.37;;;6.30;93.20;;;;;;5037829;28;20197;-86
2024/02/19 04:01:05;;;;;;;12.23;11.13;;;6.20;93.30;;;;;;5038473;28;20198;-86
2024/02/19 04:03:31;;;;;;;11.97;10.60;;;6.30;93.40;;;;;;5037951;28;20245;-86
2024/02/19 04:05:57;;;;;;;10.47;9.27;;;6.30;93.50;;;;;;5019600;28;20176;-86
2024/02/19 04:08:22;;;;;;;10.73;8.33;;;6.30;93.60;;;;;;5037721;28;20311;-86
2024/02/19 04:10:48;;;;;;;12.90;8.67;;;6.20;93.80;;;;;;5037417;28;20173;-86
2024/02/19 04:13:13;;;;;;;11.03;8.70;;;6.20;94.00;;;;;;5037524;28;20184;-87
2024/02/19 04:15:39;;;;;;;12.03;8.90;;;6.20;94.10;;;;;;5019997;28;20180;-86
2024/02/19 04:18:05;;;;;;;10.03;9.03;;;6.10;94.10;;;;;;5037517;28;20207;-86
2024/02/19 04:20:31;;;;;;;14.07;9.40;;;6.10;94.20;;;;;;5037654;28;20180;-86
2024/02/19 04:22:56;;;;;;;9.90;9.10;;;6.10;94.20;;;;;;5019252;28;20188;-86
2024/02/19 04:25:22;;;;;;;9.60;8.67;;;6.20;94.30;;;;;;5037203;28;20183;-87
2024/02/19 04:27:47;;;;;;;8.53;7.70;;;6.20;94.30;;;;;;5036936;28;20212;-86
2024/02/19 04:30:13;;;;;;;12.27;9.33;;;6.10;94.30;;;;;;5037433;28;20204;-86
2024/02/19 04:32:38;;;;;;;9.40;8.47;;;6.10;94.30;;;;;;5019504;28;20271;-86
2024/02/19 04:35:04;;;;;;;12.03;8.10;;;6.10;94.40;;;;;;5018723;28;20177;-86
2024/02/19 04:37:33;;;;;;;8.23;7.63;;;6.10;94.40;;;;;;5018823;28;20188;-87
2024/02/19 04:39:58;;;;;;;7.93;7.43;;;6.20;94.50;;;;;;5019257;28;20185;-86
2024/02/19 04:42:24;;;;;;;8.20;7.50;;;6.10;94.50;;;;;;5018777;28;20282;-86
2024/02/19 04:44:49;;;;;;;8.17;7.57;;;6.10;94.50;;;;;;5036262;28;20177;-85
2024/02/19 04:47:15;;;;;;;8.03;7.27;;;6.20;94.60;;;;;;5017483;28;20632;-85
2024/02/19 04:49:42;;;;;;;8.17;7.40;;;6.20;94.60;;;;;;5018901;28;20191;-86
2024/02/19 04:52:07;;;;;;;9.43;7.67;;;6.20;94.70;;;;;;5019004;28;20181;-87
2024/02/19 04:54:33;;;;;;;7.97;6.80;;;6.20;94.70;;;;;;5018451;28;20260;-87
2024/02/19 04:56:58;;;;;;;7.80;7.00;;;6.20;94.80;;;;;;5036708;28;20179;-86
2024/02/19 04:59:24;;;;;;;15.13;13.73;;;6.10;94.90;;;;;;5018394;28;20196;-85
2024/02/19 05:01:50;;;;;;;15.20;14.20;;;6.20;95.00;;;;;;5036569;28;20173;-86
2024/02/19 05:04:16;;;;;;;11.67;10.87;;;6.10;95.00;;;;;;5018939;28;20606;-86
2024/02/19 05:06:41;;;;;;;12.20;11.30;;;6.10;95.20;;;;;;5036481;28;20177;-85
2024/02/19 05:09:07;;;;;;;12.83;11.93;;;6.10;95.20;;;;;;5018805;28;20335;-86
2024/02/19 05:11:33;;;;;;;11.93;11.13;;;6.10;95.30;;;;;;5036227;28;20169;-86
2024/02/19 05:13:58;;;;;;;11.77;10.97;;;6.00;95.30;;;;;;5018642;28;20172;-86
2024/02/19 05:16:24;;;;;;;12.07;11.27;;;6.00;95.40;;;;;;5036461;28;20173;-86
2024/02/19 05:18:49;;;;;;;12.80;11.97;;;6.00;95.40;;;;;;5035456;28;20683;-85
2024/02/19 05:21:15;;;;;;;10.77;10.07;;;6.10;95.50;;;;;;5035329;28;20219;-85
2024/02/19 05:23:41;;;;;;;12.07;11.17;;;6.10;95.60;;;;;;5017930;28;20242;-86
2024/02/19 05:26:06;;;;;;;12.53;11.60;;;6.10;95.60;;;;;;5018431;28;20184;-86
2024/02/19 05:28:32;;;;;;;12.97;11.90;;;6.10;95.70;;;;;;5035564;28;20201;-86
2024/02/19 05:30:58;;;;;;;11.83;11.13;;;6.00;95.70;;;;;;5036010;28;20169;-85
2024/02/19 05:33:23;;;;;;;12.57;11.77;;;6.10;95.80;;;;;;5018022;28;20204;-86
2024/02/19 05:35:49;;;;;;;11.17;10.43;;;6.00;95.80;;;;;;5036566;28;20180;-86
2024/02/19 05:38:15;;;;;;;10.97;10.30;;;6.10;95.80;;;;;;5018099;28;20196;-86
2024/02/19 05:40:40;;;;;;;11.67;10.70;;;6.10;95.90;;;;;;5035781;28;20660;-86
2024/02/19 05:43:06;;;;;;;11.07;10.27;;;6.00;95.90;;;;;;5035850;28;20176;-86
2024/02/19 05:45:32;;;;;;;10.87;10.10;;;6.10;95.90;;;;;;5035958;28;20173;-88
2024/02/19 05:47:57;;;;;;;10.23;9.43;;;6.00;96.00;;;;;;5035779;28;20668;-88
2024/02/19 05:50:23;;;;;;;10.50;9.70;;;6.10;96.00;;;;;;5035291;28;20173;-86
2024/02/19 05:52:48;;;;;;;10.00;9.13;;;6.10;96.00;;;;;;5017501;28;20711;-86
2024/02/19 05:55:14;;;;;;;8.60;8.00;;;6.10;96.00;;;;;;5035715;28;20177;-86
2024/02/19 05:57:40;;;;;;;5.43;5.00;;;6.10;96.10;;;;;;5034966;28;20207;-86
2024/02/19 06:00:11;;;;;;;5.10;4.67;;;6.10;96.10;;;;;;5035643;28;20556;-85
2024/02/19 06:02:36;;;;;;;5.17;4.80;;;6.10;96.10;;;;;;5035866;28;20565;-85
2024/02/19 06:05:03;;;;;;;4.70;4.50;;;6.20;96.20;;;;;;5018204;28;20204;-86
2024/02/19 06:07:28;;;;;;;5.00;4.60;;;6.20;96.20;;;;;;5017354;28;20672;-85
2024/02/19 06:09:54;;;;;;;5.13;4.73;;;6.30;96.40;;;;;;5035798;28;20223;-85
2024/02/19 06:12:19;;;;;;;4.43;4.13;;;6.30;96.40;;;;;;5035332;28;20173;-86
2024/02/19 06:14:45;;;;;;;5.00;4.50;;;6.30;96.40;;;;;;5035185;28;20219;-86
2024/02/19 06:17:10;;;;;;;4.80;4.10;;;6.30;96.40;;;;;;5035696;28;20187;-85
2024/02/19 06:19:37;;;;;;;7.23;4.50;;;6.30;96.40;;;;;;5035016;28;20271;-87
2024/02/19 06:22:02;;;;;;;9.07;4.43;;;6.30;96.50;;;;;;5035248;28;20321;-86
2024/02/19 06:24:28;;;;;;;5.67;4.90;;;6.30;96.50;;;;;;5017448;28;20219;-86
2024/02/19 06:26:53;;;;;;;5.73;4.57;;;6.40;96.50;;;;;;5017110;28;20632;-86
2024/02/19 06:29:19;;;;;;;6.83;4.53;;;6.40;96.50;;;;;;5017209;28;20696;-89
2024/02/19 06:31:47;;;;;;;7.47;4.67;;;6.40;96.50;;;;;;5017080;28;20641;-86
2024/02/19 06:34:13;;;;;;;5.00;4.60;;;6.50;96.50;;;;;;5035075;28;20226;-86
2024/02/19 06:36:38;;;;;;;7.30;4.87;;;6.50;96.50;;;;;;5017047;28;20176;-86
2024/02/19 06:39:04;;;;;;;5.90;4.93;;;6.50;96.50;;;;;;5034857;28;20199;-87
2024/02/19 06:41:29;;;;;;;9.97;5.17;;;6.60;96.60;;;;;;5017134;28;20558;-86
2024/02/19 06:43:55;;;;;;;7.70;5.50;;;6.50;96.60;;;;;;5034829;28;20644;-86
2024/02/19 06:46:20;;;;;;;7.60;5.10;;;6.60;96.60;;;;;;5034915;28;20180;-86
2024/02/19 06:48:46;;;;;;;7.83;5.20;;;6.60;96.60;;;;;;5035053;28;20207;-86
2024/02/19 06:51:11;;;;;;;8.60;5.33;;;6.60;96.60;;;;;;5017073;28;20180;-85
2024/02/19 06:53:37;;;;;;;7.67;5.03;;;6.60;96.60;;;;;;5016710;28;20715;-85
2024/02/19 06:56:03;;;;;;;12.40;5.60;;;6.70;96.60;;;;;;5018060;28;20263;-86
2024/02/19 06:58:28;;;;;;;7.83;5.57;;;6.70;96.70;;;;;;5034737;28;20238;-86
2024/02/19 07:00:54;;;;;;;13.10;6.40;;;6.70;96.70;;;;;;5017072;28;20181;-85
2024/02/19 07:03:19;;;;;;;8.17;5.13;;;6.70;96.70;;;;;;5035165;28;20263;-86
2024/02/19 07:05:45;;;;;;;14.00;5.50;;;6.70;96.70;;;;;;5034692;28;20655;-86
2024/02/19 07:08:12;;;;;;;14.50;6.17;;;6.70;96.70;;;;;;5017185;28;20708;-86
2024/02/19 07:10:37;;;;;;;13.07;5.93;;;6.70;96.70;;;;;;5038297;28;20164;-86
2024/02/19 07:13:03;;;;;;;13.20;6.53;;;6.70;96.70;;;;;;5038949;28;20259;-86
2024/02/19 07:15:28;;;;;;;9.30;5.87;;;6.70;96.70;;;;;;5038972;28;20169;-85
2024/02/19 07:17:54;;;;;;;16.90;6.97;;;6.80;96.70;;;;;;5038687;28;20549;-86
2024/02/19 07:20:19;;;;;;;16.07;6.97;;;6.80;96.70;;;;;;5039086;28;20211;-85
2024/02/19 07:22:45;;;;;;;15.47;7.20;;;6.80;96.80;;;;;;5039998;28;20252;-87
2024/02/19 07:25:10;;;;;;;20.60;7.57;;;6.80;96.70;;;;;;5040687;28;20652;-86
2024/02/19 07:27:36;;;;;;;20.00;7.17;;;6.90;96.80;;;;;;5041001;28;20212;-86
2024/02/19 07:30:01;;;;;;;19.90;6.80;;;6.80;96.80;;;;;;5040274;28;20561;-86
2024/02/19 07:32:27;;;;;;;13.53;6.97;;;6.80;96.80;;;;;;5041046;28;20197;-88
2024/02/19 07:34:52;;;;;;;15.27;8.07;;;6.80;96.80;;;;;;5022037;28;20180;-86
2024/02/19 07:37:18;;;;;;;27.33;8.87;;;6.80;96.80;;;;;;5040062;28;20208;-86
2024/02/19 07:39:43;;;;;;;25.03;9.07;;;6.90;96.90;;;;;;5040482;28;20708;-86
2024/02/19 07:42:09;;;;;;;24.87;9.53;;;6.90;96.90;;;;;;5041006;28;20187;-86
2024/02/19 07:44:35;;;;;;;20.50;8.90;;;6.90;96.90;;;;;;5040819;28;20177;-87
2024/02/19 07:47:03;;;;;;;26.13;9.70;;;6.90;96.90;;;;;;5040488;28;20621;-86
2024/02/19 07:49:29;;;;;;;23.27;8.57;;;7.00;96.90;;;;;;5023357;28;20699;-86
2024/02/19 07:51:54;;;;;;;20.83;9.80;;;7.00;96.90;;;;;;5040779;28;20165;-86
2024/02/19 07:54:20;;;;;;;28.70;10.07;;;7.00;96.90;;;;;;5040592;28;20169;-86
2024/02/19 07:56:45;;;;;;;30.07;9.77;;;7.10;96.90;;;;;;5021191;28;20588;-88
2024/02/19 07:59:11;;;;;;;19.90;7.87;;;7.10;97.00;;;;;;5020130;28;20201;-89
2024/02/19 08:01:37;;;;;;;27.00;9.07;;;7.10;97.00;;;;;;5039321;28;20208;-87
2024/02/19 08:04:02;;;;;;;22.83;8.03;;;7.20;97.00;;;;;;5020696;28;20192;-86
2024/02/19 08:06:29;;;;;;;19.40;7.67;;;7.20;97.00;;;;;;5041125;28;20180;-87
2024/02/19 08:08:54;;;;;;;13.53;7.30;;;7.20;97.00;;;;;;5021133;28;20296;-88
2024/02/19 08:11:21;;;;;;;16.20;8.03;;;7.30;97.00;;;;;;5021627;28;20263;-90
2024/02/19 08:13:47;;;;;;;17.50;9.30;;;7.30;97.00;;;;;;5041968;28;20160;-88
2024/02/19 08:16:13;;;;;;;14.60;8.77;;;7.30;97.00;;;;;;5038518;28;20247;-86
2024/02/19 08:18:38;;;;;;;15.27;8.83;;;7.30;97.00;;;;;;5037900;28;20239;-86
2024/02/19 08:21:04;;;;;;;16.50;8.23;;;7.30;97.00;;;;;;5037635;28;20223;-86
2024/02/19 08:23:29;;;;;;;21.03;8.70;;;7.30;97.00;;;;;;5038012;28;20232;-86
2024/02/19 08:25:56;;;;;;;23.03;8.60;;;7.30;96.90;;;;;;5019915;28;20180;-86
2024/02/19 08:28:22;;;;;;;15.10;8.10;;;7.30;96.90;;;;;;5037961;28;20216;-86
2024/02/19 08:30:47;;;;;;;20.77;8.37;;;7.30;96.90;;;;;;5020223;28;20168;-87
2024/02/19 08:33:13;;;;;;;19.03;8.33;;;7.40;96.90;;;;;;5019770;28;20641;-86
2024/02/19 08:35:38;;;;;;;14.87;8.00;;;7.40;96.90;;;;;;5037287;28;20543;-87
2024/02/19 08:38:05;;;;;;;8.80;7.73;;;7.40;96.90;;;;;;5037680;28;20200;-86
2024/02/19 08:40:30;;;;;;;15.50;9.00;;;7.40;96.80;;;;;;5019664;28;20576;-86
2024/02/19 08:42:56;;;;;;;13.00;7.93;;;7.40;96.80;;;;;;5019486;28;20184;-87
2024/02/19 08:45:21;;;;;;;14.97;7.73;;;7.50;96.80;;;;;;5019434;28;20188;-86
2024/02/19 08:47:47;;;;;;;16.00;8.47;;;7.50;96.80;;;;;;5037251;28;20205;-86
2024/02/19 08:50:13;;;;;;;11.03;7.00;;;7.50;96.80;;;;;;5037769;28;20173;-86
2024/02/19 08:52:39;;;;;;;19.73;10.67;;;7.50;96.80;;;;;;5037540;28;20252;-87
2024/02/19 08:55:04;;;;;;;12.70;7.63;;;7.50;96.80;;;;;;5019910;28;20314;-86
2024/02/19 08:57:30;;;;;;;15.90;7.67;;;7.50;96.70;;;;;;5037468;28;20562;-88
2024/02/19 08:59:55;;;;;;;15.63;7.77;;;7.60;96.70;;;;;;5038221;28;20177;-86
2024/02/19 09:02:24;;;;;;;12.97;5.33;;;7.60;96.80;;;;;;5037800;28;20539;-86
2024/02/19 09:04:50;;;;;;;13.10;5.30;;;7.70;96.80;;;;;;5037580;28;20755;-87
2024/02/19 09:07:15;;;;;;;12.33;5.63;;;7.70;96.80;;;;;;5020081;28;20219;-88
2024/02/19 09:09:45;;;;;;;14.77;5.50;;;7.70;96.80;;;;;;5037514;28;20176;-86
2024/02/19 09:12:11;;;;;;;12.80;6.20;;;7.80;96.80;;;;;;5020235;28;20180;-88
2024/02/19 09:14:37;;;;;;;10.30;5.47;;;7.80;96.80;;;;;;5019698;28;20185;-87
2024/02/19 09:17:04;;;;;;;15.13;7.07;;;7.90;96.80;;;;;;5037842;28;20173;-86
2024/02/19 09:19:31;;;;;;;19.93;7.97;;;8.00;96.80;;;;;;5020235;28;20188;-87
2024/02/19 09:21:57;;;;;;;14.30;7.13;;;8.00;96.80;;;;;;5037509;28;20195;-86
2024/02/19 09:24:22;;;;;;;13.13;7.13;;;8.00;96.80;;;;;;5019592;28;20173;-87
2024/02/19 09:26:48;;;;;;;15.93;7.53;;;8.00;96.80;;;;;;5037079;28;20169;-86
2024/02/19 09:29:13;;;;;;;15.43;7.07;;;8.10;96.80;;;;;;5019406;28;20684;-86
2024/02/19 09:31:39;;;;;;;16.57;7.63;;;8.10;96.80;;;;;;5036701;28;20184;-86
2024/02/19 09:34:04;;;;;;;12.63;7.73;;;8.10;96.70;;;;;;5037782;28;20204;-87
2024/02/19 09:36:30;;;;;;;26.13;7.30;;;8.10;96.70;;;;;;5019695;28;20669;-86
2024/02/19 09:38:55;;;;;;;17.83;7.27;;;8.20;96.80;;;;;;5037922;28;20559;-86
2024/02/19 09:41:21;;;;;;;17.97;7.13;;;8.30;96.70;;;;;;5019532;28;20181;-86
2024/02/19 09:43:47;;;;;;;23.30;7.90;;;8.30;96.70;;;;;;5018872;28;20180;-86
2024/02/19 09:46:19;;;;;;;19.43;7.43;;;8.30;96.70;;;;;;5036540;28;20181;-87
2024/02/19 09:48:49;;;;;;;24.63;7.57;;;8.40;96.70;;;;;;5036991;28;20211;-87
2024/02/19 09:51:20;;;;;;;20.43;6.80;;;8.40;96.60;;;;;;5019402;28;20200;-86
2024/02/19 09:53:51;;;;;;;20.07;6.90;;;8.40;96.70;;;;;;5037134;28;20168;-87
2024/02/19 09:56:18;;;;;;;19.50;7.20;;;8.40;96.60;;;;;;5037958;28;20153;-87
2024/02/19 09:58:45;;;;;;;21.90;7.40;;;8.50;96.70;;;;;;5037837;28;20550;-87
2024/02/19 10:01:10;;;;;;;22.50;6.20;;;8.30;96.60;;;;;;5037396;28;20723;-87
2024/02/19 10:03:36;;;;;;;16.23;7.17;;;8.40;96.60;;;;;;5036891;28;20189;-86
2024/02/19 10:06:02;;;;;;;31.70;7.23;;;8.50;96.70;;;;;;5037425;28;20180;-88
2024/02/19 10:08:28;;;;;;;27.83;7.17;;;8.40;96.60;;;;;;5038321;28;20700;-87
2024/02/19 10:10:57;;;;;;;22.90;7.73;;;8.40;96.60;;;;;;5035448;28;20226;-86
2024/02/19 10:13:23;;;;;;;24.63;6.90;;;8.50;96.60;;;;;;5033837;28;20668;-86
2024/02/19 10:15:52;;;;;;;20.73;6.57;;;8.50;96.60;;;;;;5016263;28;20598;-86
2024/02/19 10:18:18;;;;;;;24.80;6.37;;;8.50;96.60;;;;;;5033734;28;20192;-86
2024/02/19 10:20:50;;;;;;;19.60;7.00;;;8.50;96.60;;;;;;5033737;28;20184;-85
2024/02/19 10:23:18;;;;;;;25.50;8.00;;;8.40;96.50;;;;;;5034409;28;20184;-86
2024/02/19 10:25:44;;;;;;;28.73;11.07;;;8.40;96.50;;;;;;5033671;28;20173;-86
2024/02/19 10:28:10;;;;;;;38.27;12.37;;;8.50;96.50;;;;;;5016015;28;20593;-86
2024/02/19 10:30:36;;;;;;;32.33;11.90;;;8.50;96.50;;;;;;5016098;28;20238;-86
2024/02/19 10:33:02;;;;;;;28.07;11.57;;;8.50;96.50;;;;;;5033713;28;20645;-86
2024/02/19 10:35:28;;;;;;;29.60;12.57;;;8.50;96.50;;;;;;5016100;28;20177;-86
2024/02/19 10:37:58;;;;;;;28.73;11.97;;;8.40;96.30;;;;;;5033637;28;20188;-86
2024/02/19 10:40:24;;;;;;;36.87;12.17;;;8.50;96.30;;;;;;5033558;28;20168;-86
2024/02/19 10:42:50;;;;;;;29.70;11.73;;;8.70;96.30;;;;;;5033617;28;20172;-86
2024/02/19 10:45:17;;;;;;;31.67;11.17;;;8.80;96.40;;;;;;5016217;28;20180;-86
2024/02/19 10:47:44;;;;;;;34.23;12.70;;;9.10;96.40;;;;;;5015776;28;20586;-86
2024/02/19 10:50:10;;;;;;;27.70;11.80;;;9.20;96.30;;;;;;5015631;28;20200;-86
2024/02/19 10:52:39;;;;;;;27.77;12.00;;;9.20;96.20;;;;;;5033484;28;20181;-86
2024/02/19 10:55:09;;;;;;;29.63;11.73;;;9.10;96.00;;;;;;5033441;28;20168;-86
2024/02/19 10:57:45;;;;;;;23.20;12.60;;;9.20;95.90;;;;;;5033674;28;20189;-86
2024/02/19 11:00:12;;;;;;;22.83;12.33;;;9.10;95.80;;;;;;5015652;28;20662;-87
2024/02/19 11:02:38;;;;;;;24.43;12.00;;;9.20;95.60;;;;;;5033928;28;20173;-84
2024/02/19 11:05:11;;;;;;;28.60;12.67;;;9.20;95.40;;;;;;5015538;28;20284;-86
2024/02/19 11:07:39;;;;;;;33.00;14.17;;;9.30;95.30;;;;;;5033143;28;20222;-87
2024/02/19 11:10:05;;;;;;;31.57;13.07;;;9.30;95.00;;;;;;5015289;28;20593;-88
2024/02/19 11:12:32;;;;;;;24.73;14.20;;;9.40;95.00;;;;;;5015365;28;20211;-86
2024/02/19 11:14:57;;;;;;;28.70;10.40;;;9.30;94.70;;;;;;5015326;28;20168;-86
2024/02/19 11:17:23;;;;;;;20.53;8.60;;;9.50;94.80;;;;;;5032908;28;20633;-85
2024/02/19 11:19:51;;;;;;;22.13;9.30;;;9.60;94.30;;;;;;5032988;28;20206;-86
2024/02/19 11:22:22;;;;;;;19.67;9.17;;;9.60;94.20;;;;;;5015348;28;20180;-85
2024/02/19 11:24:49;;;;;;;22.33;9.63;;;9.70;94.10;;;;;;5015325;28;20176;-86
2024/02/19 11:27:14;;;;;;;22.93;10.40;;;9.60;93.50;;;;;;5032745;28;20165;-85
2024/02/19 11:29:40;;;;;;;20.97;9.27;;;9.60;93.40;;;;;;5034753;28;20173;-87
2024/02/19 11:32:07;;;;;;;25.37;10.20;;;9.70;93.50;;;;;;5015903;28;20322;-87
2024/02/19 11:34:32;;;;;;;22.00;9.10;;;9.60;93.40;;;;;;5033112;28;20176;-88
2024/02/19 11:37:06;;;;;;;22.60;9.73;;;9.70;93.70;;;;;;5033296;28;20177;-88
2024/02/19 11:39:33;;;;;;;27.07;11.03;;;9.80;93.60;;;;;;5015306;28;20197;-87
2024/02/19 11:41:59;;;;;;;22.53;10.10;;;9.80;93.60;;;;;;5032959;28;20177;-87
2024/02/19 11:44:26;;;;;;;28.63;11.10;;;9.70;93.50;;;;;;5015337;28;20662;-87
2024/02/19 11:46:54;;;;;;;17.33;8.90;;;9.80;93.50;;;;;;5015251;28;20562;-86
2024/02/19 11:49:20;;;;;;;24.73;9.67;;;9.70;93.50;;;;;;5032896;28;20616;-86
2024/02/19 11:51:46;;;;;;;21.20;10.10;;;9.90;93.60;;;;;;5032663;28;20179;-85
2024/02/19 11:54:15;;;;;;;19.80;11.77;;;10.10;93.50;;;;;;5032697;28;20173;-86
2024/02/19 11:56:45;;;;;;;21.37;10.97;;;10.10;92.90;;;;;;5018283;28;20183;-86
2024/02/19 11:59:11;;;;;;;19.87;11.80;;;9.90;92.80;;;;;;5036308;28;20204;-86
2024/02/19 12:01:37;;;;;;;16.57;10.63;;;9.80;93.10;;;;;;5036451;28;20600;-86
2024/02/19 12:04:04;;;;;;;32.27;12.13;;;9.60;93.20;;;;;;5036200;28;20718;-86
2024/02/19 12:06:40;;;;;;;27.23;12.87;;;9.60;93.40;;;;;;5036197;28;20231;-86
2024/02/19 12:09:08;;;;;;;33.10;11.50;;;9.50;93.60;;;;;;5035930;28;20232;-86
2024/02/19 12:11:35;;;;;;;19.53;10.73;;;9.50;93.70;;;;;;5036025;28;20201;-86
2024/02/19 12:14:04;;;;;;;23.10;11.30;;;9.50;93.70;;;;;;5036192;28;20546;-85
2024/02/19 12:16:31;;;;;;;21.57;9.93;;;9.70;93.90;;;;;;5035851;28;20266;-85
2024/02/19 12:18:56;;;;;;;27.33;10.57;;;9.60;93.80;;;;;;5035764;28;20628;-85
2024/02/19 12:21:27;;;;;;;22.77;11.60;;;9.50;93.50;;;;;;5018172;28;20208;-85
2024/02/19 12:23:53;;;;;;;18.70;10.47;;;9.50;93.60;;;;;;5036040;28;20183;-86
2024/02/19 12:26:19;;;;;;;23.27;10.93;;;9.50;93.70;;;;;;5035754;28;20572;-87
2024/02/19 12:28:45;;;;;;;21.47;11.13;;;9.50;93.80;;;;;;5035531;28;20212;-86
2024/02/19 12:31:11;;;;;;;26.57;11.57;;;9.40;93.90;;;;;;5019028;28;20181;-89
2024/02/19 12:33:37;;;;;;;18.37;9.87;;;9.40;94.10;;;;;;5020580;28;20262;-91
2024/02/19 12:36:08;;;;;;;19.60;10.33;;;9.50;94.10;;;;;;5036436;28;20172;-86
2024/02/19 12:38:35;;;;;;;14.57;9.70;;;9.50;94.10;;;;;;5035839;28;20695;-87